Time;durP1;ratioP1;P1;durP2;ratioP2;P2;SDS_P1;SDS_P2;PMS_P1;PMS_P2;Temp;Humidity;BMP_temperature;BMP_pressure;BME280_temperature;BME280_humidity;BME280_pressure;Samples;Min_cycle;Max_cycle;Signal;HPM_P1;HPM_P2
2021/11/13 00:01:23;;;;;;;55.27;36.53;;;;;;;6.20;71.73;100339.03;4874161;28;100244;-82
2021/11/13 00:03:49;;;;;;;58.13;36.58;;;;;;;6.13;72.20;100332.19;4899773;28;96492;-82
2021/11/13 00:06:14;;;;;;;53.20;35.47;;;;;;;6.11;72.39;100329.59;4868407;28;96830;-82
2021/11/13 00:09:07;;;;;;;58.93;35.83;;;;;;;6.15;72.03;100332.16;4880311;28;99646;-82
2021/11/13 00:16:16;;;;;;;54.43;35.60;;;;;;;6.04;72.70;100330.56;4891754;28;96679;-82
2021/11/13 00:19:08;;;;;;;56.88;36.78;;;;;;;6.03;72.42;100321.03;4912822;28;96929;-82
2021/11/13 00:21:34;;;;;;;62.30;37.87;;;;;;;5.93;73.03;100311.63;4878347;28;100562;-82
2021/11/13 00:23:59;;;;;;;55.43;37.00;;;;;;;6.02;72.76;100326.25;4861875;28;99371;-82
2021/11/13 00:26:25;;;;;;;57.53;37.63;;;;;;;5.99;72.78;100319.38;4910791;28;96573;-82
2021/11/13 00:28:52;;;;;;;61.37;38.43;;;;;;;5.96;72.91;100305.50;4879533;28;96604;-82
2021/11/13 00:31:18;;;;;;;65.07;39.50;;;;;;;6.04;72.88;100321.91;4894068;28;97140;-82
2021/11/13 00:33:43;;;;;;;65.07;39.10;;;;;;;6.03;72.29;100309.75;4895298;28;96645;-82
2021/11/13 00:36:09;;;;;;;62.73;38.10;;;;;;;6.02;72.95;100306.31;4895019;28;96623;-82
2021/11/13 00:38:48;;;;;;;61.53;39.50;;;;;;;6.07;72.21;100317.50;4896178;28;96622;-82
2021/11/13 00:45:11;;;;;;;58.70;37.35;;;;;;;6.01;72.72;100306.31;4909536;28;97002;-82
2021/11/13 00:48:15;;;;;;;64.20;38.30;;;;;;;6.10;72.58;100317.44;4865658;28;96481;-82
2021/11/13 00:50:42;;;;;;;59.03;37.07;;;;;;;6.03;72.46;100313.22;4904010;28;96456;-82
2021/11/13 00:53:08;;;;;;;62.97;37.60;;;;;;;6.10;72.04;100313.97;4885031;28;101433;-83
2021/11/13 00:55:59;;;;;;;69.20;38.90;;;;;;;6.17;71.69;100307.81;4848118;28;99569;-82
2021/11/13 00:58:54;;;;;;;67.47;38.27;;;;;;;6.03;72.63;100308.00;4892129;28;96790;-83
2021/11/13 01:01:19;;;;;;;63.97;39.20;;;;;;;6.05;72.52;100307.97;4904159;28;96528;-85
2021/11/13 01:03:45;;;;;;;66.03;38.50;;;;;;;5.95;72.89;100303.81;4885427;28;101516;-82
2021/11/13 01:06:19;;;;;;;59.47;36.97;;;;;;;5.95;72.93;100301.19;4872624;28;100528;-82
2021/11/13 01:13:14;;;;;;;63.80;38.63;;;;;;;6.00;72.50;100302.84;4902294;28;96407;-82
2021/11/13 01:19:29;;;;;;;58.77;38.07;;;;;;;5.90;72.97;100298.63;4904523;28;96916;-82
2021/11/13 01:25:56;;;;;;;68.60;40.67;;;;;;;5.88;72.74;100293.44;4897917;28;96533;-82
2021/11/13 01:28:22;;;;;;;70.33;41.93;;;;;;;5.82;73.17;100290.09;4871164;28;100686;-82
2021/11/13 01:31:07;;;;;;;70.17;42.73;;;;;;;5.88;72.86;100284.78;4887338;28;97901;-82
2021/11/13 01:33:36;;;;;;;65.13;40.20;;;;;;;5.80;72.73;100284.88;4872523;28;96722;-82
2021/11/13 01:36:03;;;;;;;63.87;39.33;;;;;;;5.77;72.97;100284.94;4857261;28;96696;-82
2021/11/13 01:38:54;;;;;;;64.20;41.20;;;;;;;5.80;73.32;100284.03;4889375;28;98580;-82
2021/11/13 01:41:20;;;;;;;73.60;44.87;;;;;;;5.79;72.95;100269.25;4890112;28;97970;-82
2021/11/13 01:43:46;;;;;;;76.67;45.57;;;;;;;5.82;72.61;100266.63;4860532;28;96579;-82
2021/11/13 01:46:39;;;;;;;76.63;45.73;;;;;;;5.76;73.16;100264.09;4885303;28;96535;-82
2021/11/13 01:52:55;;;;;;;83.17;47.73;;;;;;;5.71;73.36;100265.94;4886051;28;97004;-82
2021/11/13 01:55:22;;;;;;;84.37;51.67;;;;;;;5.74;73.03;100264.13;4874364;28;96898;-82
2021/11/13 01:57:48;;;;;;;94.13;52.47;;;;;;;5.71;73.23;100264.19;4861452;28;96612;-82
2021/11/13 02:00:52;;;;;;;83.23;51.37;;;;;;;5.64;73.59;100265.13;4897723;28;101519;-83
2021/11/13 02:07:13;;;;;;;83.07;49.57;;;;;;;5.62;73.55;100265.19;4894845;28;96596;-82
2021/11/13 02:14:07;;;;;;;87.43;51.00;;;;;;;5.65;73.53;100257.31;4882104;28;96926;-82
2021/11/13 02:20:36;;;;;;;93.63;54.43;;;;;;;5.67;72.72;100254.69;4882153;28;96622;-82
2021/11/13 02:27:14;;;;;;;93.57;53.30;;;;;;;5.62;73.29;100252.16;4870505;28;96713;-82
2021/11/13 02:34:12;;;;;;;90.70;53.40;;;;;;;5.64;72.75;100244.31;4881701;28;96441;-82
2021/11/13 02:40:31;;;;;;;88.90;53.63;;;;;;;5.60;73.01;100240.91;4881503;28;96499;-82
2021/11/13 02:47:02;;;;;;;82.07;51.50;;;;;;;5.65;72.76;100233.03;4881587;28;96557;-82
2021/11/13 03:01:19;;;;;;;80.53;48.83;;;;;;;5.66;72.10;100233.00;4881533;28;96716;-82
2021/11/13 03:03:50;;;;;;;82.60;49.80;;;;;;;5.66;72.26;100237.34;4852435;28;96598;-82
2021/11/13 03:06:55;;;;;;;88.77;50.60;;;;;;;5.63;72.00;100240.84;4812839;29;97546;-82
2021/11/13 03:13:09;;;;;;;89.27;53.43;;;;;;;5.66;71.96;100239.94;4825410;29;96923;-82
2021/11/13 03:16:24;;;;;;;95.30;53.70;;;;;;;5.52;71.89;100224.53;4825208;29;96781;-82
2021/11/13 03:18:49;;;;;;;92.50;54.23;;;;;;;5.43;72.51;100228.13;4809223;29;100922;-82
2021/11/13 03:21:16;;;;;;;89.43;53.27;;;;;;;5.42;72.21;100233.38;4793338;29;100396;-82
2021/11/13 03:23:55;;;;;;;92.30;53.10;;;;;;;5.35;72.40;100231.72;4778101;29;96745;-82
2021/11/13 03:39:09;;;;;;;84.80;50.87;;;;;;;5.34;72.44;100240.41;4849468;29;96653;-81
2021/11/13 03:45:37;;;;;;;88.67;53.67;;;;;;;5.43;72.47;100232.47;4871392;28;96634;-82
2021/11/13 03:52:07;;;;;;;86.10;53.83;;;;;;;5.31;72.50;100227.44;4883107;28;96529;-81
2021/11/13 03:58:32;;;;;;;102.60;56.03;;;;;;;5.45;71.78;100228.13;4883272;28;97141;-81
2021/11/13 04:04:58;;;;;;;86.67;50.93;;;;;;;5.24;72.50;100224.06;4883389;28;96550;-82
2021/11/13 04:11:43;;;;;;;89.87;52.73;;;;;;;5.24;72.11;100213.66;4886181;28;96951;-82
2021/11/13 04:14:58;;;;;;;94.33;53.90;;;;;;;5.17;72.14;100218.06;4874239;28;99576;-82
2021/11/13 04:17:24;;;;;;;100.53;55.43;;;;;;;5.16;72.72;100215.50;4859986;28;96584;-82
2021/11/13 04:19:49;;;;;;;92.63;54.87;;;;;;;5.16;72.77;100218.09;4852498;28;96387;-82
2021/11/13 04:22:22;;;;;;;98.67;57.07;;;;;;;5.20;73.01;100214.56;4859961;28;101573;-81
2021/11/13 04:36:21;;;;;;;98.97;55.97;;;;;;;5.14;73.22;100209.44;4889244;28;98034;-82
2021/11/13 04:38:48;;;;;;;103.53;58.30;;;;;;;5.19;73.19;100213.72;4874781;28;97826;-82
2021/11/13 04:41:14;;;;;;;108.40;59.70;;;;;;;5.16;73.43;100212.91;4861982;28;96547;-83
2021/11/13 04:43:40;;;;;;;112.47;58.73;;;;;;;5.20;73.22;100211.97;4885893;28;96282;-83
2021/11/13 04:46:06;;;;;;;104.03;59.07;;;;;;;5.08;73.69;100209.53;4885390;28;96615;-83
2021/11/13 04:48:31;;;;;;;103.70;56.73;;;;;;;5.08;73.73;100214.75;4863058;28;96597;-82
2021/11/13 04:51:07;;;;;;;98.80;57.97;;;;;;;5.06;73.64;100212.19;4864012;28;96687;-82
2021/11/13 04:57:35;;;;;;;107.47;58.03;;;;;;;5.14;73.64;100220.72;4894987;28;96420;-82
2021/11/13 05:04:39;;;;;;;106.17;56.77;;;;;;;5.15;73.41;100216.41;4882735;28;96735;-82
2021/11/13 05:07:05;;;;;;;99.60;57.13;;;;;;;5.16;73.33;100215.50;4851925;28;96796;-83
2021/11/13 05:09:31;;;;;;;103.63;57.93;;;;;;;5.28;73.25;100219.69;4860258;28;99761;-82
2021/11/13 05:11:57;;;;;;;94.17;52.23;;;;;;;5.28;73.02;100214.47;4883931;28;97532;-82
2021/11/13 05:14:22;;;;;;;99.70;55.90;;;;;;;5.19;72.99;100226.72;4851573;28;96605;-81
2021/11/13 05:16:48;;;;;;;98.10;57.20;;;;;;;5.17;73.39;100220.69;4868519;28;97250;-81
2021/11/13 05:19:38;;;;;;;96.23;56.40;;;;;;;5.16;73.42;100225.91;4867140;28;100421;-82
2021/11/13 05:22:08;;;;;;;93.17;53.90;;;;;;;5.15;72.97;100227.66;4835872;28;101032;-82
2021/11/13 05:24:34;;;;;;;93.13;53.47;;;;;;;5.20;72.97;100236.25;4867670;28;96516;-82
2021/11/13 05:27:00;;;;;;;95.67;54.37;;;;;;;5.27;72.97;100239.66;4852419;28;96912;-82
2021/11/13 05:30:21;;;;;;;93.87;53.50;;;;;;;5.27;73.19;100234.44;4867989;28;101199;-81
2021/11/13 05:36:48;;;;;;;90.50;52.53;;;;;;;5.24;73.25;100236.22;4882976;28;96610;-82
2021/11/13 05:40:01;;;;;;;92.20;54.87;;;;;;;5.33;72.91;100241.31;4868471;28;96818;-81
2021/11/13 05:42:27;;;;;;;86.38;49.05;;;;;;;5.31;73.09;100248.28;4883052;28;100800;-82
2021/11/13 05:44:52;;;;;;;97.10;55.83;;;;;;;5.29;72.46;100252.63;4884253;28;97854;-82
2021/11/13 05:47:27;;;;;;;94.70;54.13;;;;;;;5.28;72.86;100253.53;4868174;28;97198;-82
2021/11/13 05:50:36;;;;;;;94.93;53.77;;;;;;;5.21;72.92;100255.34;4852324;28;96875;-82
2021/11/13 05:53:02;;;;;;;93.03;53.47;;;;;;;5.28;73.06;100256.13;4884098;28;100204;-82
2021/11/13 05:55:28;;;;;;;94.03;55.97;;;;;;;5.38;72.53;100255.97;4854373;28;100391;-82
2021/11/13 05:58:08;;;;;;;91.97;53.50;;;;;;;5.28;72.70;100256.13;4869724;28;96648;-81
2021/11/13 06:00:49;;;;;;;97.77;54.03;;;;;;;5.29;72.78;100245.66;4868368;28;96803;-82
2021/11/13 06:03:15;;;;;;;98.27;56.63;;;;;;;5.25;72.54;100245.75;4869546;28;98074;-82
2021/11/13 06:05:42;;;;;;;97.03;54.17;;;;;;;5.24;72.80;100252.69;4869743;28;100845;-82
2021/11/13 06:08:13;;;;;;;98.77;56.13;;;;;;;5.26;73.12;100260.47;4854586;28;97073;-82
2021/11/13 06:10:58;;;;;;;100.50;55.60;;;;;;;5.23;73.10;100261.38;4870570;28;96691;-82
2021/11/13 06:13:23;;;;;;;92.93;54.83;;;;;;;5.25;73.01;100264.81;4870440;28;99846;-82
2021/11/13 06:15:49;;;;;;;100.17;54.03;;;;;;;5.34;72.58;100259.50;4887710;28;96576;-82
2021/11/13 06:18:23;;;;;;;97.70;56.40;;;;;;;5.38;72.31;100270.72;4874695;28;96530;-82
2021/11/13 06:24:48;;;;;;;103.47;55.60;;;;;;;5.35;72.68;100274.25;4899676;28;96421;-83
2021/11/13 06:31:01;;;;;;;98.17;57.17;;;;;;;5.38;72.43;100282.03;4886429;28;98337;-81
2021/11/13 06:38:32;;;;;;;95.80;55.17;;;;;;;5.51;72.40;100284.44;4900456;28;96621;-83
2021/11/13 06:40:58;;;;;;;100.43;56.40;;;;;;;5.57;72.04;100295.63;4885788;28;100666;-83
2021/11/13 06:43:24;;;;;;;97.73;55.80;;;;;;;5.58;72.35;100284.31;4884682;28;96493;-82
2021/11/13 06:46:27;;;;;;;96.80;54.97;;;;;;;5.67;71.83;100292.03;4880599;28;96855;-82
2021/11/13 07:01:13;;;;;;;96.65;54.72;;;;;;;6.50;69.29;100300.28;4893852;28;96418;-82
2021/11/13 07:07:57;;;;;;;103.55;57.90;;;;;;;7.28;67.13;100296.19;4885137;28;97076;-82
2021/11/13 07:14:11;;;;;;;98.00;54.15;;;;;;;8.47;63.96;100302.19;4885618;28;96479;-82
2021/11/13 07:20:54;;;;;;;88.35;51.65;;;;;;;9.24;61.36;100291.31;4885165;28;96912;-81
2021/11/13 08:08:19;;;;;;;79.78;44.85;;;;;;;7.35;66.22;100299.50;4886262;28;96585;-81
2021/11/13 08:15:16;;;;;;;78.43;46.08;;;;;;;7.32;66.43;100294.34;4874446;28;96605;-81
2021/11/13 08:18:25;;;;;;;75.85;46.13;;;;;;;7.28;66.56;100288.34;4833145;28;100659;-81
2021/11/13 08:20:51;;;;;;;78.88;46.88;;;;;;;7.33;66.88;100280.41;4866855;28;96774;-81
2021/11/13 08:23:17;;;;;;;71.93;43.53;;;;;;;7.32;66.76;100278.69;4835691;29;96710;-81
2021/11/13 08:25:48;;;;;;;73.95;45.83;;;;;;;7.36;66.57;100277.72;4820314;29;96752;-81
2021/11/13 08:32:09;;;;;;;79.05;47.45;;;;;;;7.32;66.60;100279.53;4889371;28;97068;-81
2021/11/13 08:34:36;;;;;;;72.55;44.85;;;;;;;7.44;66.23;100281.03;4873018;28;96832;-81
2021/11/13 08:37:04;;;;;;;75.20;45.33;;;;;;;7.48;66.20;100280.94;4871849;28;96545;-82
2021/11/13 08:39:35;;;;;;;74.45;44.08;;;;;;;7.64;66.20;100281.44;4863507;29;100308;-82
2021/11/13 08:42:36;;;;;;;71.28;44.22;;;;;;;8.03;65.25;100281.44;4874304;29;101900;-81
2021/11/13 08:49:04;;;;;;;74.43;42.85;;;;;;;8.40;64.13;100280.53;4875475;29;96369;-82
2021/11/13 08:55:21;;;;;;;70.05;44.08;;;;;;;8.45;64.16;100277.81;4868572;28;96955;-79
2021/11/13 08:57:52;;;;;;;74.95;45.67;;;;;;;8.68;64.06;100278.06;4862589;28;96686;-80
2021/11/13 09:00:24;;;;;;;70.67;44.03;;;;;;;8.92;62.77;100273.91;4850251;28;96922;-80
2021/11/13 09:02:56;;;;;;;71.20;44.63;;;;;;;9.05;62.27;100280.53;4864708;28;101721;-80
2021/11/13 09:05:30;;;;;;;75.32;45.45;;;;;;;9.19;62.64;100280.13;4851989;28;100495;-80
2021/11/13 09:07:57;;;;;;;74.13;44.03;;;;;;;9.20;61.83;100279.22;4867929;28;96596;-80
2021/11/13 09:10:23;;;;;;;75.38;45.92;;;;;;;9.20;62.24;100279.22;4855054;28;96714;-79
2021/11/13 09:12:49;;;;;;;70.22;44.92;;;;;;;9.25;61.87;100274.72;4867892;28;97565;-79
2021/11/13 09:15:18;;;;;;;76.05;45.85;;;;;;;9.19;62.62;100277.50;4852097;28;101263;-80
2021/11/13 09:17:44;;;;;;;77.30;44.13;;;;;;;9.03;63.09;100271.84;4851150;28;96897;-79
2021/11/13 09:20:10;;;;;;;68.78;43.90;;;;;;;8.98;62.94;100270.25;4846042;28;96862;-79
2021/11/13 09:22:36;;;;;;;71.68;43.42;;;;;;;8.88;62.96;100274.91;4850544;28;101653;-80
2021/11/13 09:25:08;;;;;;;70.43;41.95;;;;;;;8.96;62.78;100286.03;4834395;29;100217;-78
2021/11/13 09:27:38;;;;;;;66.82;43.60;;;;;;;9.07;63.27;100272.59;4869042;28;96704;-79
2021/11/13 09:30:11;;;;;;;76.15;46.65;;;;;;;9.40;62.51;100278.63;4850645;29;97009;-78
2021/11/13 09:32:37;;;;;;;71.50;44.58;;;;;;;9.64;61.45;100266.53;4851884;29;101745;-78
2021/11/13 09:35:03;;;;;;;68.85;42.00;;;;;;;10.26;59.84;100262.78;4865664;28;99208;-78
2021/11/13 09:37:31;;;;;;;65.53;43.97;;;;;;;10.64;58.57;100264.13;4855359;29;96945;-80
2021/11/13 09:39:58;;;;;;;63.42;41.83;;;;;;;10.49;58.77;100261.19;4851273;28;96920;-79
2021/11/13 09:42:24;;;;;;;63.40;41.80;;;;;;;10.61;58.70;100263.38;4844143;29;100481;-78
2021/11/13 09:44:50;;;;;;;63.00;41.45;;;;;;;11.03;57.42;100261.00;4850317;28;100549;-77
2021/11/13 09:47:17;;;;;;;63.95;41.17;;;;;;;10.93;57.88;100267.47;4878042;28;96814;-79
2021/11/13 09:49:44;;;;;;;67.50;42.20;;;;;;;10.70;58.19;100267.44;4866337;28;96918;-78
2021/11/13 09:52:12;;;;;;;66.85;42.75;;;;;;;10.43;58.88;100260.47;4864044;28;101043;-77
2021/11/13 09:54:39;;;;;;;61.00;40.20;;;;;;;10.20;59.70;100269.09;4874912;28;97351;-78
2021/11/13 09:57:05;;;;;;;62.88;40.28;;;;;;;10.00;59.68;100262.78;4859591;28;97028;-76
2021/11/13 09:59:30;;;;;;;55.03;37.92;;;;;;;9.96;59.99;100267.28;4872414;28;96989;-79
2021/11/13 10:01:56;;;;;;;55.35;37.75;;;;;;;9.84;60.15;100260.69;4860796;28;101619;-79
2021/11/13 10:04:23;;;;;;;58.10;39.08;;;;;;;9.83;60.39;100261.59;4862295;28;100625;-78
2021/11/13 10:06:49;;;;;;;60.63;39.65;;;;;;;9.85;60.91;100269.38;4948589;23;96717;-77
2021/11/13 10:09:16;;;;;;;55.97;37.75;;;;;;;9.83;60.35;100258.09;4854360;29;97256;-78
2021/11/13 10:15:35;;;;;;;55.05;35.95;;;;;;;9.68;60.12;100251.56;4891815;28;96589;-80
2021/11/13 10:18:15;;;;;;;55.88;37.05;;;;;;;9.73;60.28;100255.75;4860093;28;96633;-80
2021/11/13 10:20:45;;;;;;;55.83;35.67;;;;;;;9.80;60.47;100259.03;4845095;29;96661;-79
2021/11/13 10:23:18;;;;;;;59.03;36.72;;;;;;;9.77;60.70;100259.13;4862230;28;101050;-79
2021/11/13 10:26:08;;;;;;;57.03;37.63;;;;;;;9.81;59.94;100252.91;4844619;28;101714;-77
2021/11/13 10:28:52;;;;;;;58.90;37.22;;;;;;;9.80;60.17;100245.06;4843784;28;96904;-79
2021/11/13 10:31:24;;;;;;;58.95;38.78;;;;;;;9.89;60.23;100247.41;4835779;28;96936;-79
2021/11/13 10:33:51;;;;;;;54.33;36.15;;;;;;;9.87;60.07;100249.25;4866208;28;102203;-79
2021/11/13 10:36:28;;;;;;;58.03;37.40;;;;;;;9.84;60.34;100233.59;4835124;29;101594;-80
2021/11/13 10:39:05;;;;;;;55.03;35.08;;;;;;;9.95;60.23;100236.75;4835682;28;97277;-80
2021/11/13 10:41:31;;;;;;;50.28;34.90;;;;;;;10.04;60.67;100238.19;4870789;28;96985;-80
2021/11/13 10:43:57;;;;;;;57.50;37.28;;;;;;;10.36;59.84;100235.38;4852540;28;98019;-80
2021/11/13 10:46:43;;;;;;;59.35;37.33;;;;;;;10.41;59.57;100229.94;4870422;28;101769;-80
2021/11/13 10:49:09;;;;;;;53.95;34.60;;;;;;;10.42;59.62;100229.91;4857579;28;96512;-80
2021/11/13 10:51:37;;;;;;;58.50;36.28;;;;;;;10.42;59.96;100239.56;4874647;28;96719;-81
2021/11/13 10:54:11;;;;;;;51.00;34.63;;;;;;;10.39;59.58;100229.16;4878510;28;96836;-80
2021/11/13 10:56:46;;;;;;;48.72;33.92;;;;;;;10.31;59.56;100228.56;4873616;28;96638;-80
2021/11/13 10:59:12;;;;;;;48.45;34.00;;;;;;;10.41;59.14;100227.31;4854071;28;97134;-80
2021/11/13 11:01:39;;;;;;;49.28;34.25;;;;;;;10.40;59.14;100217.75;4840010;28;96838;-80
2021/11/13 11:04:06;;;;;;;46.00;32.40;;;;;;;10.61;58.83;100216.97;4852714;28;101349;-80
2021/11/13 11:06:38;;;;;;;42.35;30.27;;;;;;;10.69;58.36;100214.09;4884720;28;97604;-80
2021/11/13 11:15:17;;;;;;;36.05;26.25;;;;;;;11.16;56.24;100218.50;5025905;23;97044;-77
2021/11/13 11:17:44;;;;;;;37.20;26.25;;;;;;;11.21;54.84;100217.41;4891195;28;97804;-77
2021/11/13 11:20:13;;;;;;;31.70;25.58;;;;;;;11.04;55.13;100204.91;4853696;28;96565;-77
2021/11/13 11:22:39;;;;;;;30.67;24.33;;;;;;;11.21;54.94;100209.53;4856655;28;96669;-76
2021/11/13 11:25:13;;;;;;;31.30;25.25;;;;;;;11.28;53.78;100211.00;4857336;28;100547;-77
2021/11/13 11:27:49;;;;;;;31.17;24.80;;;;;;;11.21;53.03;100208.69;4886959;28;97930;-78
2021/11/13 11:30:17;;;;;;;28.25;24.73;;;;;;;11.06;53.41;100199.59;4874611;28;96515;-77
2021/11/13 11:32:42;;;;;;;32.22;27.20;;;;;;;11.08;53.15;100201.28;4857911;28;96759;-78
2021/11/13 11:35:12;;;;;;;31.58;27.00;;;;;;;10.97;53.52;100199.97;4907917;28;98101;-78
2021/11/13 11:41:31;;;;;;;31.08;24.45;;;;;;;10.97;53.51;100207.84;4906640;28;96606;-81
2021/11/13 11:44:33;;;;;;;29.77;24.17;;;;;;;10.96;52.85;100198.22;4876453;28;96750;-80
2021/11/13 11:46:59;;;;;;;28.52;23.55;;;;;;;10.80;54.43;100205.84;4913752;28;97743;-76
2021/11/13 11:49:25;;;;;;;31.15;24.98;;;;;;;10.82;54.21;100203.97;4870472;28;98015;-80
2021/11/13 11:51:51;;;;;;;32.25;24.65;;;;;;;10.67;54.00;100201.94;4860181;28;96645;-81
2021/11/13 11:54:17;;;;;;;34.70;25.17;;;;;;;10.64;54.27;100214.25;4877496;28;96910;-80
2021/11/13 12:00:32;;;;;;;31.02;24.15;;;;;;;10.62;54.14;100204.75;4907287;28;96855;-78
2021/11/13 12:03:05;;;;;;;30.45;24.70;;;;;;;10.69;53.30;100205.38;4884918;28;96808;-79
2021/11/13 12:05:32;;;;;;;26.77;23.08;;;;;;;10.59;53.60;100205.69;4873507;28;97223;-78
2021/11/13 12:15:15;;;;;;;32.83;25.98;;;;;;;10.56;53.53;100202.31;4849631;29;97063;-77
2021/11/13 12:17:40;;;;;;;31.00;23.63;;;;;;;10.39;54.58;100201.16;4839771;29;96873;-79
2021/11/13 12:20:11;;;;;;;28.77;23.05;;;;;;;10.34;55.05;100202.22;4813952;29;101544;-80
2021/11/13 12:23:18;;;;;;;31.52;24.48;;;;;;;10.32;54.95;100197.00;4836954;29;100987;-79
2021/11/13 12:26:02;;;;;;;30.67;24.77;;;;;;;10.52;54.69;100195.47;4833288;29;96712;-79
2021/11/13 12:28:30;;;;;;;31.23;24.67;;;;;;;10.65;54.67;100196.75;4849124;29;97005;-80
2021/11/13 12:31:01;;;;;;;30.23;24.50;;;;;;;10.56;55.13;100190.06;4835893;29;97570;-79
2021/11/13 12:33:26;;;;;;;31.35;26.45;;;;;;;10.60;54.61;100193.44;4835358;29;99817;-79
2021/11/13 12:36:02;;;;;;;32.53;25.13;;;;;;;10.53;54.75;100197.16;4844208;29;96908;-79
2021/11/13 12:38:31;;;;;;;30.40;25.42;;;;;;;10.56;54.77;100192.69;4781668;29;96940;-79
2021/11/13 12:41:23;;;;;;;33.75;25.90;;;;;;;10.60;54.93;100199.53;4820496;29;100867;-79
2021/11/13 12:43:54;;;;;;;32.58;25.08;;;;;;;10.50;55.55;100198.16;4853336;29;100236;-79
2021/11/13 12:46:41;;;;;;;42.55;26.90;;;;;;;10.43;56.09;100200.13;4849678;29;96595;-78
2021/11/13 12:49:16;;;;;;;33.55;25.73;;;;;;;10.42;55.45;100197.56;4847971;28;96777;-79
2021/11/13 12:51:52;;;;;;;31.83;25.48;;;;;;;10.49;55.92;100195.56;4865890;28;101886;-79
2021/11/13 12:57:40;;;;;;;33.00;26.08;;;;;;;10.43;55.87;100199.28;4881781;28;96696;-78
2021/11/13 13:00:25;;;;;;;34.55;25.17;;;;;;;10.47;56.09;100189.50;4848525;28;96600;-79
2021/11/13 13:02:52;;;;;;;34.95;26.25;;;;;;;10.48;55.73;100191.25;4849447;28;101488;-77
2021/11/13 13:05:18;;;;;;;35.58;26.38;;;;;;;10.43;56.18;100184.38;4853257;28;101232;-77
2021/11/13 13:07:56;;;;;;;44.50;32.15;;;;;;;10.40;56.15;100186.25;4848175;28;96827;-78
2021/11/13 13:10:24;;;;;;;47.08;34.13;;;;;;;10.38;56.67;100194.22;4851933;28;96766;-78
2021/11/13 13:16:36;;;;;;;31.13;24.40;;;;;;;10.35;56.58;100196.91;4882670;28;98658;-78
2021/11/13 13:19:02;;;;;;;35.40;25.70;;;;;;;10.38;56.97;100202.06;4887687;28;96643;-78
2021/11/13 13:21:27;;;;;;;37.42;28.02;;;;;;;10.40;57.34;100204.63;4857727;28;96858;-78
2021/11/13 13:23:53;;;;;;;41.92;28.63;;;;;;;10.39;57.13;100201.16;4853851;28;100473;-78
2021/11/13 13:26:19;;;;;;;37.78;25.73;;;;;;;10.40;56.99;100205.47;4839362;28;101488;-78
2021/11/13 13:28:44;;;;;;;34.45;27.13;;;;;;;10.43;56.93;100204.53;4838633;29;96854;-78
2021/11/13 13:31:11;;;;;;;33.78;26.48;;;;;;;10.43;56.75;100209.78;4851476;28;96856;-78
2021/11/13 13:33:39;;;;;;;40.15;28.42;;;;;;;10.37;56.30;100202.97;4865154;28;98090;-78
2021/11/13 13:36:05;;;;;;;40.03;26.73;;;;;;;10.42;56.60;100213.31;4870426;28;97576;-79
2021/11/13 13:39:13;;;;;;;36.80;25.88;;;;;;;10.37;56.36;100215.22;4869475;28;96681;-79
2021/11/13 13:41:42;;;;;;;35.47;26.52;;;;;;;10.34;56.02;100216.19;4870126;28;96616;-78
2021/11/13 13:44:08;;;;;;;33.22;25.70;;;;;;;10.34;56.11;100207.47;4838462;28;101446;-79
2021/11/13 13:46:40;;;;;;;31.70;23.98;;;;;;;10.31;56.51;100213.69;4852502;28;99843;-78
2021/11/13 13:49:11;;;;;;;32.63;24.50;;;;;;;10.29;56.43;100214.63;4858423;28;96750;-77
2021/11/13 13:51:42;;;;;;;34.13;25.65;;;;;;;10.24;56.55;100213.91;4862441;28;96791;-79
2021/11/13 13:54:51;;;;;;;37.00;26.48;;;;;;;10.21;56.38;100217.50;4840509;28;100489;-78
2021/11/13 13:57:18;;;;;;;41.33;27.15;;;;;;;10.18;57.26;100215.84;4889208;28;97614;-77
2021/11/13 13:59:46;;;;;;;39.97;27.13;;;;;;;10.14;57.34;100208.97;4853973;28;96754;-79
2021/11/13 14:06:03;;;;;;;37.17;27.38;;;;;;;10.04;57.10;100219.84;4886345;28;97181;-78
2021/11/13 14:08:29;;;;;;;37.13;27.25;;;;;;;10.01;57.13;100212.94;4842311;28;101175;-78
2021/11/13 14:10:55;;;;;;;40.25;27.90;;;;;;;9.95;57.32;100216.63;4857806;28;96999;-78
2021/11/13 14:13:25;;;;;;;36.13;26.08;;;;;;;9.92;57.33;100214.09;4857358;28;96894;-78
2021/11/13 14:16:34;;;;;;;32.15;25.85;;;;;;;9.89;58.09;100218.56;4863428;28;101105;-78
2021/11/13 14:19:14;;;;;;;41.63;27.48;;;;;;;9.80;57.86;100218.88;4887905;28;101437;-78
2021/11/13 14:21:42;;;;;;;40.77;29.30;;;;;;;9.71;58.67;100228.72;4888439;28;96650;-78
2021/11/13 14:24:25;;;;;;;40.33;30.27;;;;;;;9.62;59.01;100229.03;4887397;28;96884;-78
2021/11/13 14:27:08;;;;;;;48.20;31.42;;;;;;;9.58;58.58;100221.34;4869258;28;98202;-77
2021/11/13 14:29:35;;;;;;;42.40;30.20;;;;;;;9.52;59.28;100218.00;4869178;28;101438;-77
2021/11/13 14:32:25;;;;;;;46.47;31.95;;;;;;;9.49;58.84;100225.09;4865831;29;96608;-78
2021/11/13 14:34:51;;;;;;;47.97;32.42;;;;;;;9.44;59.80;100229.63;4880928;28;96792;-77
2021/11/13 14:37:18;;;;;;;52.67;32.60;;;;;;;9.44;59.42;100227.00;4889423;28;101146;-78
2021/11/13 14:39:46;;;;;;;50.10;33.90;;;;;;;9.36;59.26;100227.22;4855469;28;100307;-78
2021/11/13 14:42:35;;;;;;;44.97;32.38;;;;;;;9.39;59.69;100234.13;4872851;28;96569;-78
2021/11/13 14:45:00;;;;;;;48.38;32.78;;;;;;;9.37;59.62;100228.09;4857101;28;96749;-78
2021/11/13 14:47:28;;;;;;;40.78;30.70;;;;;;;9.55;61.32;100227.53;4889345;28;98093;-78
2021/11/13 14:50:08;;;;;;;48.05;34.22;;;;;;;9.50;60.02;100229.41;4874573;28;100640;-78
2021/11/13 14:52:41;;;;;;;47.45;33.22;;;;;;;9.45;59.79;100237.44;4856597;28;96794;-78
2021/11/13 15:02:48;;;;;;;49.28;35.30;;;;;;;9.19;60.57;100233.00;4877971;28;96715;-78
2021/11/13 15:09:05;;;;;;;51.13;36.88;;;;;;;9.15;60.74;100240.97;4865795;29;96590;-77
2021/11/13 15:11:48;;;;;;;50.95;36.10;;;;;;;9.14;61.04;100236.66;4866678;29;98093;-79
2021/11/13 15:14:26;;;;;;;55.00;37.67;;;;;;;9.13;61.39;100242.75;4878778;28;97987;-78
2021/11/13 15:16:53;;;;;;;60.30;39.30;;;;;;;9.10;61.51;100241.09;4851029;28;96750;-78
2021/11/13 15:19:42;;;;;;;55.45;38.63;;;;;;;9.05;61.05;100241.25;4867294;28;96958;-78
2021/11/13 15:22:11;;;;;;;57.10;38.53;;;;;;;9.00;61.79;100240.50;4853244;28;101797;-78
2021/11/13 15:24:46;;;;;;;54.50;38.35;;;;;;;8.93;61.77;100238.97;4849441;29;100303;-78
2021/11/13 15:27:17;;;;;;;55.45;38.47;;;;;;;8.90;61.85;100236.44;4850710;29;96618;-77
2021/11/13 15:29:44;;;;;;;55.92;37.55;;;;;;;8.90;61.78;100249.53;4851515;29;96670;-78
2021/11/13 15:32:11;;;;;;;57.67;38.67;;;;;;;8.90;61.81;100256.50;4866772;29;98112;-78
2021/11/13 15:34:40;;;;;;;57.33;38.92;;;;;;;8.88;61.89;100253.09;4834470;29;101639;-78
2021/11/13 15:37:27;;;;;;;58.53;39.13;;;;;;;8.84;61.42;100250.56;4869238;28;96658;-77
2021/11/13 15:44:04;;;;;;;69.15;42.17;;;;;;;8.80;61.51;100258.53;4823789;29;98935;-80
2021/11/13 15:46:32;;;;;;;96.63;56.47;;;;;;;8.76;61.91;100254.31;4877801;28;97480;-80
2021/11/13 15:49:01;;;;;;;99.05;59.60;;;;;;;8.71;61.74;100250.94;4873487;28;96665;-80
2021/11/13 15:55:25;;;;;;;70.53;44.72;;;;;;;8.68;61.92;100262.34;4868756;28;96588;-78
2021/11/13 15:57:51;;;;;;;64.47;43.47;;;;;;;8.66;61.95;100252.81;4868272;28;100905;-79
2021/11/13 16:00:19;;;;;;;61.83;39.90;;;;;;;8.69;61.84;100250.97;4876218;28;96502;-83
2021/11/13 16:22:58;;;;;;;58.42;40.65;;;;;;;8.56;62.27;100268.78;5865497;23;98951;-78
2021/11/13 16:25:24;;;;;;;63.20;43.17;;;;;;;8.63;61.52;100272.06;4886069;28;97107;-78
2021/11/13 16:27:53;;;;;;;66.00;43.80;;;;;;;8.64;61.33;100278.16;4901489;28;97738;-79
2021/11/13 16:30:19;;;;;;;64.55;42.58;;;;;;;8.56;61.24;100281.00;4863442;28;97722;-78
2021/11/13 16:32:45;;;;;;;60.90;41.53;;;;;;;8.53;61.38;100278.47;4863346;28;96844;-79
2021/11/13 16:35:11;;;;;;;60.38;42.17;;;;;;;8.50;61.47;100274.16;4870909;28;97393;-79